createdAt,value
2018-09-30T00:01:14.006Z,100.00
2018-09-30T00:03:42.917Z,100.00
2018-09-30T00:06:11.776Z,100.00
2018-09-30T00:08:40.663Z,100.00
2018-09-30T00:11:09.615Z,100.00
2018-09-30T00:13:38.312Z,100.00
2018-09-30T00:16:07.171Z,100.00
2018-09-30T00:18:36.099Z,100.00
2018-09-30T00:21:05.323Z,100.00
2018-09-30T00:23:39.401Z,100.00
2018-09-30T00:26:13.539Z,100.00
2018-09-30T00:28:42.477Z,100.00
2018-09-30T00:31:11.268Z,100.00
2018-09-30T00:33:45.352Z,100.00
2018-09-30T00:36:14.605Z,100.00
2018-09-30T00:38:43.219Z,100.00
2018-09-30T00:41:12.406Z,100.00
2018-09-30T00:43:41.187Z,100.00
2018-09-30T00:46:09.984Z,100.00
2018-09-30T00:48:38.887Z,100.00
2018-09-30T00:51:07.773Z,100.00
2018-09-30T00:53:36.539Z,100.00
2018-09-30T00:56:05.276Z,100.00
2018-09-30T00:58:34.055Z,100.00
2018-09-30T01:01:02.858Z,100.00
2018-09-30T01:03:31.610Z,100.00
2018-09-30T01:06:01.069Z,100.00
2018-09-30T01:08:30.067Z,100.00
2018-09-30T01:10:58.762Z,100.00
2018-09-30T01:13:27.578Z,100.00
2018-09-30T01:15:56.286Z,100.00
2018-09-30T01:18:24.972Z,100.00
2018-09-30T01:20:53.957Z,100.00
2018-09-30T01:23:23.940Z,100.00
2018-09-30T01:25:53.707Z,100.00
2018-09-30T01:28:22.775Z,100.00
2018-09-30T01:30:51.585Z,100.00
2018-09-30T01:33:20.446Z,100.00
2018-09-30T01:35:49.141Z,100.00
2018-09-30T01:38:18.147Z,100.00
2018-09-30T01:40:47.187Z,100.00
2018-09-30T01:43:16.096Z,100.00
2018-09-30T01:45:44.947Z,100.00
2018-09-30T01:48:13.794Z,100.00
2018-09-30T01:50:42.584Z,100.00
2018-09-30T01:53:11.361Z,100.00
2018-09-30T01:55:40.287Z,100.00
2018-09-30T01:58:09.053Z,100.00
2018-09-30T02:00:38.099Z,100.00
2018-09-30T02:03:07.654Z,100.00
2018-09-30T02:05:36.786Z,100.00
2018-09-30T02:08:05.645Z,100.00
2018-09-30T02:10:34.748Z,100.00
2018-09-30T02:13:03.623Z,100.00
2018-09-30T02:15:32.759Z,100.00
2018-09-30T02:18:01.676Z,100.00
2018-09-30T02:20:30.499Z,100.00
2018-09-30T02:22:59.426Z,100.00
2018-09-30T02:25:28.198Z,100.00
2018-09-30T02:27:57.228Z,100.00
2018-09-30T02:30:26.047Z,100.00
2018-09-30T02:32:55.173Z,100.00
2018-09-30T02:35:23.986Z,100.00
2018-09-30T02:37:52.947Z,100.00
2018-09-30T02:40:22.161Z,100.00
2018-09-30T02:42:51.026Z,100.00
2018-09-30T02:45:19.868Z,100.00
2018-09-30T02:47:48.802Z,100.00
2018-09-30T02:50:17.917Z,100.00
2018-09-30T02:52:46.839Z,100.00
2018-09-30T02:55:15.539Z,100.00
2018-09-30T02:57:44.476Z,100.00
2018-09-30T03:00:13.213Z,100.00
2018-09-30T03:02:41.939Z,100.00
2018-09-30T03:05:10.671Z,100.00
2018-09-30T03:07:44.974Z,100.00
2018-09-30T03:10:13.863Z,100.00
2018-09-30T03:12:42.515Z,100.00
2018-09-30T03:15:11.315Z,100.00
2018-09-30T03:17:40.119Z,100.00
2018-09-30T03:20:09.197Z,100.00
2018-09-30T03:22:37.972Z,100.00
2018-09-30T03:25:07.076Z,100.00
2018-09-30T03:27:35.749Z,100.00
2018-09-30T03:30:04.819Z,100.00
2018-09-30T03:32:33.669Z,100.00
2018-09-30T03:35:02.439Z,100.00
2018-09-30T03:37:31.137Z,100.00
2018-09-30T03:39:59.926Z,100.00
2018-09-30T03:42:28.783Z,100.00
2018-09-30T03:44:57.607Z,100.00
2018-09-30T03:47:26.327Z,100.00
2018-09-30T03:49:55.258Z,100.00
2018-09-30T03:52:24.381Z,100.00
2018-09-30T03:54:53.104Z,100.00
2018-09-30T03:57:21.866Z,100.00
2018-09-30T03:59:50.531Z,100.00
2018-09-30T04:05:15.830Z,100.00
2018-09-30T04:07:45.199Z,100.00
2018-09-30T04:10:14.665Z,100.00
2018-09-30T04:12:43.804Z,100.00
2018-09-30T04:15:13.027Z,100.00
2018-09-30T04:17:42.482Z,100.00
2018-09-30T04:20:11.629Z,100.00
2018-09-30T04:22:41.005Z,100.00
2018-09-30T04:25:10.129Z,100.00
2018-09-30T04:27:39.288Z,100.00
2018-09-30T04:30:08.558Z,100.00
2018-09-30T04:32:37.779Z,100.00
2018-09-30T04:35:07.116Z,100.00
2018-09-30T04:37:36.393Z,100.00
2018-09-30T04:40:05.526Z,100.00
2018-09-30T04:42:34.677Z,100.00
2018-09-30T04:45:03.967Z,100.00
2018-09-30T04:47:33.075Z,100.00
2018-09-30T04:50:02.333Z,100.00
2018-09-30T04:52:31.493Z,100.00
2018-09-30T04:55:00.674Z,100.00
2018-09-30T04:57:30.300Z,100.00
2018-09-30T04:59:59.535Z,100.00
2018-09-30T05:02:28.595Z,100.00
2018-09-30T05:04:57.905Z,100.00
2018-09-30T05:07:27.095Z,100.00
2018-09-30T05:09:56.184Z,100.00
2018-09-30T05:12:25.695Z,100.00
2018-09-30T05:14:54.744Z,100.00
2018-09-30T05:17:23.916Z,100.00
2018-09-30T05:19:53.065Z,100.00
2018-09-30T05:22:22.193Z,100.00
2018-09-30T05:24:51.466Z,100.00
2018-09-30T05:27:20.680Z,100.00
2018-09-30T05:29:49.847Z,100.00
2018-09-30T05:32:19.076Z,100.00
2018-09-30T05:34:48.247Z,100.00
2018-09-30T05:37:17.640Z,100.00
2018-09-30T05:39:46.933Z,100.00
2018-09-30T05:42:16.176Z,100.00
2018-09-30T05:44:45.344Z,100.00
2018-09-30T05:47:14.588Z,100.00
2018-09-30T05:49:43.952Z,100.00
2018-09-30T05:52:13.178Z,100.00
2018-09-30T05:54:42.119Z,100.00
2018-09-30T05:57:11.455Z,100.00
2018-09-30T05:59:40.527Z,100.00
2018-09-30T06:02:09.770Z,100.00
2018-09-30T06:04:39.121Z,100.00
2018-09-30T06:07:08.478Z,100.00
2018-09-30T06:09:37.756Z,100.00
2018-09-30T06:12:06.921Z,100.00
2018-09-30T06:14:36.020Z,100.00
2018-09-30T06:17:05.025Z,100.00
2018-09-30T06:19:34.218Z,100.00
2018-09-30T06:22:03.333Z,100.00
2018-09-30T06:24:32.519Z,100.00
2018-09-30T06:27:01.761Z,100.00
2018-09-30T06:29:31.127Z,100.00
2018-09-30T06:32:00.769Z,100.00
2018-09-30T06:34:29.821Z,100.00
2018-09-30T06:36:58.945Z,100.00
2018-09-30T06:39:28.106Z,100.00
2018-09-30T06:41:57.441Z,100.00
2018-09-30T06:44:26.704Z,100.00
2018-09-30T06:46:56.038Z,100.00
2018-09-30T06:49:25.506Z,100.00
2018-09-30T06:51:55.010Z,100.00
2018-09-30T06:54:24.129Z,100.00
2018-09-30T06:56:53.320Z,100.00
2018-09-30T06:59:22.503Z,100.00
2018-09-30T07:01:51.826Z,100.00
2018-09-30T07:04:20.920Z,100.00
2018-09-30T07:06:50.287Z,100.00
2018-09-30T07:09:19.493Z,100.00
2018-09-30T07:11:48.929Z,100.00
2018-09-30T07:14:18.284Z,100.00
2018-09-30T07:16:47.587Z,100.00
2018-09-30T07:19:17.300Z,99.55
2018-09-30T07:21:46.544Z,99.43
2018-09-30T07:24:15.584Z,98.69
2018-09-30T07:26:44.629Z,99.49
2018-09-30T07:29:13.784Z,97.24
2018-09-30T07:31:43.023Z,96.95
2018-09-30T07:34:12.207Z,95.50
2018-09-30T07:36:41.549Z,95.42
2018-09-30T07:39:11.499Z,95.63
2018-09-30T07:41:40.777Z,94.11
2018-09-30T07:44:10.289Z,92.21
2018-09-30T07:46:39.695Z,91.39
2018-09-30T07:49:08.846Z,92.13
2018-09-30T07:51:38.036Z,90.36
2018-09-30T07:54:07.370Z,90.63
2018-09-30T07:56:36.695Z,89.61
2018-09-30T07:59:05.811Z,87.74
2018-09-30T08:01:35.031Z,88.11
2018-09-30T08:04:04.201Z,87.38
2018-09-30T08:06:33.385Z,86.36
2018-09-30T08:09:02.679Z,85.60
2018-09-30T08:11:32.059Z,86.41
2018-09-30T08:14:06.561Z,85.26
2018-09-30T08:16:37.215Z,84.00
2018-09-30T08:19:09.208Z,84.07
2018-09-30T08:21:38.932Z,82.16
2018-09-30T08:24:10.034Z,81.57
2018-09-30T08:26:40.062Z,80.59
2018-09-30T08:29:10.031Z,80.58
2018-09-30T08:31:39.584Z,79.54
2018-09-30T08:34:09.460Z,78.20
2018-09-30T08:36:38.991Z,78.14
2018-09-30T08:39:09.634Z,76.44
2018-09-30T08:41:38.967Z,75.37
2018-09-30T08:44:13.011Z,76.35
2018-09-30T08:46:44.279Z,74.96
2018-09-30T08:49:13.592Z,74.81
2018-09-30T08:51:43.019Z,74.21
2018-09-30T08:54:12.956Z,71.24
2018-09-30T08:56:43.033Z,70.36
2018-09-30T08:59:15.570Z,70.29
2018-09-30T09:01:45.653Z,71.33
2018-09-30T09:04:15.282Z,70.71
2018-09-30T09:06:44.596Z,70.45
2018-09-30T09:09:14.104Z,70.46
2018-09-30T09:11:43.412Z,68.34
2018-09-30T09:14:12.668Z,67.56
2018-09-30T09:16:46.047Z,67.93
2018-09-30T09:19:15.684Z,66.37
2018-09-30T09:21:45.147Z,64.92
2018-09-30T09:24:14.455Z,65.51
2018-09-30T09:26:43.810Z,63.63
2018-09-30T09:29:12.850Z,63.97
2018-09-30T09:31:42.252Z,62.58
2018-09-30T09:34:11.254Z,63.15
2018-09-30T09:36:40.369Z,62.35
2018-09-30T09:39:10.868Z,63.05
2018-09-30T09:41:40.124Z,61.84
2018-09-30T09:44:09.630Z,60.53
2018-09-30T09:46:42.142Z,61.42
2018-09-30T09:49:12.816Z,60.04
2018-09-30T09:51:48.882Z,59.04
2018-09-30T09:54:18.729Z,59.95
2018-09-30T09:56:50.245Z,58.96
2018-09-30T09:59:19.988Z,58.18
2018-09-30T10:01:49.156Z,56.49
2018-09-30T10:04:18.200Z,55.56
2018-09-30T10:06:47.548Z,56.80
2018-09-30T10:09:16.816Z,55.97
2018-09-30T10:11:46.060Z,54.01
2018-09-30T10:14:15.210Z,54.36
2018-09-30T10:16:44.555Z,55.05
2018-09-30T10:19:13.716Z,53.20
2018-09-30T10:21:42.863Z,52.42
2018-09-30T10:24:12.278Z,53.31
2018-09-30T10:26:41.488Z,53.02
2018-09-30T10:29:10.841Z,52.22
2018-09-30T10:31:40.412Z,51.22
2018-09-30T10:34:10.320Z,52.07
2018-09-30T10:36:45.872Z,50.80
2018-09-30T10:39:15.095Z,52.06
2018-09-30T10:41:44.228Z,50.52
2018-09-30T10:44:13.619Z,49.44
2018-09-30T10:46:42.749Z,48.77
2018-09-30T10:49:11.915Z,49.79
2018-09-30T10:51:41.303Z,49.70
2018-09-30T10:54:10.375Z,50.05
2018-09-30T10:56:39.766Z,48.96
2018-09-30T10:59:08.889Z,48.68
2018-09-30T11:01:38.356Z,49.01
2018-09-30T11:04:16.591Z,48.89
2018-09-30T11:06:45.623Z,48.89
2018-09-30T11:09:14.587Z,47.61
2018-09-30T11:11:43.827Z,42.32
2018-09-30T11:14:13.189Z,36.40
2018-09-30T11:16:42.396Z,34.40
2018-09-30T11:19:11.488Z,32.14
2018-09-30T11:21:40.892Z,32.20
2018-09-30T11:24:10.191Z,30.93
2018-09-30T11:26:39.495Z,29.98
2018-09-30T11:29:08.800Z,29.52
2018-09-30T11:31:38.049Z,28.12
2018-09-30T11:34:07.167Z,28.17
2018-09-30T11:36:36.492Z,28.08
2018-09-30T11:39:08.503Z,26.86
2018-09-30T11:41:37.574Z,25.19
2018-09-30T11:44:06.618Z,26.03
2018-09-30T11:46:35.846Z,28.66
2018-09-30T11:49:05.407Z,32.26
2018-09-30T11:51:34.546Z,34.12
2018-09-30T11:54:03.919Z,34.51
2018-09-30T11:56:33.299Z,35.83
2018-09-30T11:59:02.613Z,36.81
2018-09-30T12:01:33.244Z,38.73
2018-09-30T12:04:02.680Z,36.65
2018-09-30T12:06:31.897Z,35.13
2018-09-30T12:09:01.069Z,37.36
2018-09-30T12:11:30.147Z,37.14
2018-09-30T12:13:59.281Z,40.06
2018-09-30T12:16:28.468Z,39.00
2018-09-30T12:18:57.636Z,39.04
2018-09-30T12:21:27.109Z,38.24
2018-09-30T12:23:56.111Z,37.54
2018-09-30T12:26:25.262Z,38.71
2018-09-30T12:28:54.626Z,39.04
2018-09-30T12:31:24.069Z,39.56
2018-09-30T12:33:53.327Z,38.99
2018-09-30T12:36:22.464Z,40.19
2018-09-30T12:38:51.628Z,39.83
2018-09-30T12:41:21.024Z,39.87
2018-09-30T12:43:50.015Z,39.83
2018-09-30T12:46:19.539Z,39.86
2018-09-30T12:48:49.075Z,39.17
2018-09-30T12:51:18.378Z,40.07
2018-09-30T12:53:47.423Z,39.52
2018-09-30T12:56:16.542Z,36.72
2018-09-30T12:58:45.755Z,32.41
2018-09-30T13:01:14.836Z,24.77
2018-09-30T13:03:43.929Z,24.42
2018-09-30T13:06:13.437Z,24.08
2018-09-30T13:08:43.288Z,22.24
2018-09-30T13:11:12.459Z,21.90
2018-09-30T13:13:41.637Z,21.18
2018-09-30T13:16:11.060Z,21.42
2018-09-30T13:18:40.340Z,21.36
2018-09-30T13:21:09.553Z,22.25
2018-09-30T13:23:38.754Z,21.55
2018-09-30T13:26:07.964Z,22.26
2018-09-30T13:28:37.135Z,21.54
2018-09-30T13:31:06.244Z,21.11
2018-09-30T13:33:35.302Z,20.63
2018-09-30T13:36:04.662Z,20.16
2018-09-30T13:38:34.022Z,19.16
2018-09-30T13:41:03.354Z,21.04
2018-09-30T13:43:32.424Z,20.16
2018-09-30T13:46:01.966Z,27.40
2018-09-30T13:48:31.161Z,29.04
2018-09-30T13:51:00.465Z,31.22
2018-09-30T13:53:29.839Z,29.55
2018-09-30T13:55:58.945Z,31.48
2018-09-30T13:58:28.514Z,31.89
2018-09-30T14:00:57.852Z,33.88
2018-09-30T14:03:26.889Z,33.77
2018-09-30T14:05:56.150Z,34.34
2018-09-30T14:08:25.507Z,32.91
2018-09-30T14:10:54.556Z,34.84
2018-09-30T14:13:23.804Z,33.56
2018-09-30T14:15:53.143Z,34.37
2018-09-30T14:18:22.402Z,34.58
2018-09-30T14:20:51.627Z,33.40
2018-09-30T14:23:21.006Z,34.21
2018-09-30T14:25:50.323Z,33.78
2018-09-30T14:28:19.397Z,35.95
2018-09-30T14:30:48.732Z,35.07
2018-09-30T14:33:17.982Z,35.34
2018-09-30T14:35:47.243Z,35.47
2018-09-30T14:38:16.457Z,35.58
2018-09-30T14:40:45.727Z,37.67
2018-09-30T14:43:14.778Z,36.07
2018-09-30T14:45:44.110Z,36.55
2018-09-30T14:48:13.215Z,38.46
2018-09-30T14:50:42.424Z,36.40
2018-09-30T14:53:11.488Z,36.18
2018-09-30T14:55:40.720Z,35.70
2018-09-30T14:58:10.091Z,36.23
2018-09-30T15:00:42.219Z,36.20
2018-09-30T15:03:11.365Z,37.40
2018-09-30T15:05:40.772Z,36.90
2018-09-30T15:08:09.965Z,37.02
2018-09-30T15:10:39.159Z,36.12
2018-09-30T15:13:08.461Z,36.83
2018-09-30T15:15:37.564Z,36.71
2018-09-30T15:18:06.760Z,37.71
2018-09-30T15:20:36.006Z,39.71
2018-09-30T15:23:05.053Z,37.80
2018-09-30T15:25:34.263Z,36.99
2018-09-30T15:28:03.457Z,38.43
2018-09-30T15:30:32.743Z,38.20
2018-09-30T15:33:01.803Z,38.36
2018-09-30T15:35:31.155Z,38.37
2018-09-30T15:38:00.651Z,37.69
2018-09-30T15:40:29.950Z,37.82
2018-09-30T15:42:59.527Z,39.08
2018-09-30T15:45:28.645Z,43.28
2018-09-30T15:47:57.736Z,38.85
2018-09-30T15:50:26.935Z,39.31
2018-09-30T15:52:56.236Z,38.97
2018-09-30T15:55:25.487Z,39.62
2018-09-30T15:57:54.849Z,40.08
2018-09-30T16:00:24.183Z,45.71
2018-09-30T16:02:53.227Z,41.31
2018-09-30T16:05:22.471Z,44.64
2018-09-30T16:07:51.607Z,42.55
2018-09-30T16:10:23.764Z,46.73
2018-09-30T16:12:53.368Z,49.56
2018-09-30T16:15:22.772Z,49.05
2018-09-30T16:17:52.271Z,49.46
2018-09-30T16:20:21.543Z,52.07
2018-09-30T16:22:50.761Z,50.25
2018-09-30T16:25:19.909Z,51.42
2018-09-30T16:28:51.904Z,53.36
2018-09-30T16:31:21.335Z,56.15
2018-09-30T16:33:50.558Z,56.87
2018-09-30T16:36:19.913Z,57.68
2018-09-30T16:38:49.153Z,56.14
2018-09-30T16:41:18.545Z,63.16
2018-09-30T16:43:47.536Z,62.38
2018-09-30T16:46:16.815Z,60.17
2018-09-30T16:48:46.092Z,59.73
2018-09-30T16:51:15.528Z,63.49
2018-09-30T16:53:44.756Z,61.44
2018-09-30T16:56:14.084Z,62.91
2018-09-30T16:58:43.353Z,69.36
2018-09-30T17:01:12.692Z,68.41
2018-09-30T17:03:41.861Z,71.34
2018-09-30T17:06:11.190Z,68.85
2018-09-30T17:08:40.240Z,69.37
2018-09-30T17:11:09.580Z,72.26
2018-09-30T17:13:38.527Z,74.13
2018-09-30T17:16:08.411Z,73.81
2018-09-30T17:18:37.784Z,73.40
2018-09-30T17:21:07.241Z,72.71
2018-09-30T17:23:36.635Z,72.65
2018-09-30T17:26:05.728Z,76.47
2018-09-30T17:28:34.907Z,78.03
2018-09-30T17:31:04.514Z,79.57
2018-09-30T17:33:34.018Z,78.57
2018-09-30T17:36:03.231Z,80.63
2018-09-30T17:38:32.396Z,80.95
2018-09-30T17:41:01.828Z,79.16
2018-09-30T17:43:31.193Z,83.28
2018-09-30T17:46:00.344Z,84.60
2018-09-30T17:48:29.509Z,86.25
2018-09-30T17:50:58.976Z,84.62
2018-09-30T17:53:28.180Z,83.63
2018-09-30T17:55:57.439Z,84.31
2018-09-30T17:58:26.789Z,85.52
2018-09-30T18:00:56.327Z,87.17
2018-09-30T18:03:25.502Z,88.90
2018-09-30T18:05:55.932Z,88.92
2018-09-30T18:08:25.211Z,88.87
2018-09-30T18:10:54.582Z,90.50
2018-09-30T18:13:23.926Z,92.71
2018-09-30T18:15:53.036Z,92.77
2018-09-30T18:18:22.431Z,92.33
2018-09-30T18:20:51.950Z,93.26
2018-09-30T18:23:22.026Z,93.37
2018-09-30T18:25:51.394Z,93.83
2018-09-30T18:28:20.931Z,96.28
2018-09-30T18:30:50.176Z,95.18
2018-09-30T18:33:19.371Z,96.32
2018-09-30T18:35:48.610Z,97.96
2018-09-30T18:38:17.835Z,98.87
2018-09-30T18:40:48.409Z,98.68
2018-09-30T18:43:17.743Z,98.79
2018-09-30T18:45:46.995Z,100.00
2018-09-30T18:48:16.135Z,100.00
2018-09-30T18:50:45.504Z,100.00
2018-09-30T18:53:14.744Z,100.00
2018-09-30T18:55:44.020Z,100.00
2018-09-30T18:58:13.306Z,100.00
2018-09-30T19:00:44.967Z,100.00
2018-09-30T19:03:15.985Z,100.00
2018-09-30T19:05:45.328Z,100.00
2018-09-30T19:08:14.982Z,100.00
2018-09-30T19:10:44.796Z,100.00
2018-09-30T19:13:15.960Z,100.00
2018-09-30T19:15:45.556Z,100.00
2018-09-30T19:18:15.093Z,100.00
2018-09-30T19:20:44.641Z,100.00
2018-09-30T19:23:14.113Z,100.00
2018-09-30T19:25:44.287Z,100.00
2018-09-30T19:28:15.041Z,100.00
2018-09-30T19:30:45.100Z,100.00
2018-09-30T19:33:14.221Z,100.00
2018-09-30T19:35:43.568Z,100.00
2018-09-30T19:38:15.572Z,100.00
2018-09-30T19:40:45.908Z,100.00
2018-09-30T19:43:15.465Z,100.00
2018-09-30T19:45:48.169Z,100.00
2018-09-30T19:48:21.740Z,100.00
2018-09-30T19:50:52.515Z,100.00
2018-09-30T19:53:22.595Z,100.00
2018-09-30T19:55:52.659Z,100.00
2018-09-30T19:58:23.546Z,100.00
2018-09-30T20:00:52.943Z,100.00
2018-09-30T20:03:22.659Z,100.00
2018-09-30T20:05:52.045Z,100.00
2018-09-30T20:08:21.956Z,100.00
2018-09-30T20:10:51.284Z,100.00
2018-09-30T20:13:23.909Z,100.00
2018-09-30T20:15:53.460Z,100.00
2018-09-30T20:18:23.369Z,100.00
2018-09-30T20:20:52.782Z,100.00
2018-09-30T20:23:21.830Z,100.00
2018-09-30T20:25:50.981Z,100.00
2018-09-30T20:28:20.127Z,100.00
2018-09-30T20:30:49.384Z,100.00
2018-09-30T20:33:18.644Z,100.00
2018-09-30T20:35:48.039Z,100.00
2018-09-30T20:38:17.995Z,100.00
2018-09-30T20:40:47.572Z,100.00
2018-09-30T20:43:16.762Z,100.00
2018-09-30T20:45:46.092Z,100.00
2018-09-30T20:48:15.361Z,100.00
2018-09-30T20:50:44.654Z,100.00
2018-09-30T20:53:14.362Z,100.00
2018-09-30T20:55:43.638Z,100.00
2018-09-30T20:58:13.988Z,100.00
2018-09-30T21:00:43.215Z,100.00
2018-09-30T21:03:14.244Z,100.00
2018-09-30T21:05:55.160Z,100.00
2018-09-30T21:08:24.757Z,100.00
2018-09-30T21:10:53.937Z,100.00
2018-09-30T21:13:23.279Z,100.00
2018-09-30T21:15:52.623Z,100.00
2018-09-30T21:18:21.755Z,100.00
2018-09-30T21:20:50.974Z,100.00
2018-09-30T21:23:20.277Z,100.00
2018-09-30T21:25:49.642Z,100.00
2018-09-30T21:28:18.972Z,100.00
2018-09-30T21:30:49.006Z,100.00
2018-09-30T21:33:18.317Z,100.00
2018-09-30T21:35:47.871Z,100.00
2018-09-30T21:38:17.595Z,100.00
2018-09-30T21:40:46.972Z,100.00
2018-09-30T21:43:16.853Z,100.00
2018-09-30T21:45:46.252Z,100.00
2018-09-30T21:48:17.170Z,100.00
2018-09-30T21:50:46.303Z,100.00
2018-09-30T21:53:16.611Z,100.00
2018-09-30T21:55:46.032Z,100.00
2018-09-30T21:58:15.285Z,100.00
2018-09-30T22:01:00.479Z,100.00
2018-09-30T22:03:30.844Z,100.00
2018-09-30T22:06:00.170Z,100.00
2018-09-30T22:08:32.210Z,100.00
2018-09-30T22:11:01.766Z,100.00
2018-09-30T22:13:30.935Z,100.00
2018-09-30T22:16:00.355Z,100.00
2018-09-30T22:18:29.563Z,100.00
2018-09-30T22:20:58.666Z,100.00
2018-09-30T22:23:27.840Z,100.00
2018-09-30T22:25:57.351Z,100.00
2018-09-30T22:28:27.121Z,100.00
2018-09-30T22:30:56.408Z,100.00
2018-09-30T22:33:26.035Z,100.00
2018-09-30T22:35:55.332Z,100.00
2018-09-30T22:38:24.732Z,100.00
2018-09-30T22:40:53.935Z,100.00
2018-09-30T22:43:23.400Z,100.00
2018-09-30T22:45:56.284Z,100.00
2018-09-30T22:48:25.974Z,100.00
2018-09-30T22:51:03.819Z,100.00
2018-09-30T22:53:34.580Z,100.00
2018-09-30T22:56:04.558Z,100.00
2018-09-30T22:58:34.655Z,100.00
2018-09-30T23:01:04.611Z,100.00
2018-09-30T23:03:34.852Z,100.00
2018-09-30T23:06:10.181Z,100.00
2018-09-30T23:08:39.457Z,100.00
2018-09-30T23:11:08.687Z,100.00
2018-09-30T23:13:37.714Z,100.00
2018-09-30T23:16:07.115Z,100.00
2018-09-30T23:18:36.353Z,100.00
2018-09-30T23:21:05.364Z,100.00
2018-09-30T23:23:34.623Z,100.00
2018-09-30T23:26:03.843Z,100.00
2018-09-30T23:28:33.019Z,100.00
2018-09-30T23:31:04.184Z,100.00
2018-09-30T23:33:33.416Z,100.00
2018-09-30T23:36:02.685Z,100.00
2018-09-30T23:38:31.974Z,100.00
2018-09-30T23:41:01.187Z,100.00
2018-09-30T23:43:30.587Z,100.00
2018-09-30T23:45:59.822Z,100.00
2018-09-30T23:48:29.089Z,100.00
2018-09-30T23:50:58.926Z,100.00
2018-09-30T23:53:28.186Z,100.00
2018-09-30T23:55:57.668Z,100.00
2018-09-30T23:58:26.887Z,100.00
